BCS2240 EDDP-EKBI
Flight info
| Callsign | BCS2240 |
|---|---|
| Flight time | 1h 0m |
| Altitude | 35000 |
| Route | PENEM1N PENEM Z131 PENEK DCT RADEL DCT SONAL/N0457F360 DCT LOKSA |
| Aircraft | B738/M-SDE2E3FGHIRWXY/LB1 |
Departure
| Time | 2026-05-06 15:12 |
|---|---|
| Airport | Leipzig/Halle Airport (EDDP) |
Arrival
| Time | 2026-05-06 16:12 |
|---|---|
| Airport | Billund Airport (EKBI) |
| Time | Latitude | Longitude | Altitude | Speed | Heading |
|---|---|---|---|---|---|
| 2026-05-06 14:49 | 51.42569 | 12.23155 | 436 ft | 0 kts | 175° |
| 2026-05-06 14:59 | 51.42580 | 12.23154 | 421 ft | 2 kts | 173° |
| 2026-05-06 14:59 | 51.42596 | 12.23151 | 425 ft | 2 kts | 172° |
| 2026-05-06 15:00 | 51.42613 | 12.23146 | 421 ft | 2 kts | 168° |
| 2026-05-06 15:00 | 51.42628 | 12.23140 | 425 ft | 2 kts | 162° |
| 2026-05-06 15:00 | 51.42644 | 12.23131 | 428 ft | 2 kts | 151° |
| 2026-05-06 15:00 | 51.42657 | 12.23115 | 428 ft | 2 kts | 126° |
| 2026-05-06 15:01 | 51.42664 | 12.23091 | 427 ft | 2 kts | 93° |
| 2026-05-06 15:01 | 51.42664 | 12.23079 | 427 ft | 0 kts | 86° |
| 2026-05-06 15:02 | 51.42664 | 12.23147 | 432 ft | 20 kts | 87° |
| 2026-05-06 15:03 | 51.42680 | 12.23406 | 435 ft | 22 kts | 71° |
| 2026-05-06 15:03 | 51.42792 | 12.23462 | 424 ft | 0 kts | 355° |
| 2026-05-06 15:04 | 51.42796 | 12.23461 | 434 ft | 6 kts | 355° |
| 2026-05-06 15:05 | 51.42901 | 12.23513 | 433 ft | 21 kts | 70° |
| 2026-05-06 15:05 | 51.42915 | 12.23737 | 431 ft | 20 kts | 85° |
| 2026-05-06 15:05 | 51.42926 | 12.23967 | 442 ft | 23 kts | 85° |
| 2026-05-06 15:05 | 51.42940 | 12.24251 | 444 ft | 27 kts | 86° |
| 2026-05-06 15:06 | 51.42954 | 12.24542 | 446 ft | 25 kts | 85° |
| 2026-05-06 15:06 | 51.42966 | 12.24814 | 448 ft | 24 kts | 85° |
| 2026-05-06 15:06 | 51.42978 | 12.25070 | 450 ft | 23 kts | 85° |
| 2026-05-06 15:06 | 51.42990 | 12.25334 | 451 ft | 28 kts | 86° |
| 2026-05-06 15:07 | 51.43004 | 12.25635 | 450 ft | 26 kts | 85° |
| 2026-05-06 15:07 | 51.43018 | 12.25917 | 452 ft | 25 kts | 86° |
| 2026-05-06 15:07 | 51.43029 | 12.26180 | 451 ft | 23 kts | 86° |
| 2026-05-06 15:07 | 51.43040 | 12.26431 | 454 ft | 22 kts | 86° |
| 2026-05-06 15:08 | 51.43052 | 12.26676 | 453 ft | 22 kts | 79° |
| 2026-05-06 15:08 | 51.43178 | 12.26741 | 456 ft | 21 kts | 355° |
| 2026-05-06 15:08 | 51.43208 | 12.26737 | 456 ft | 0 kts | 355° |
| 2026-05-06 15:11 | 51.43258 | 12.26725 | 455 ft | 22 kts | 342° |
| 2026-05-06 15:11 | 51.43355 | 12.26503 | 453 ft | 0 kts | 266° |
| 2026-05-06 15:11 | 51.43352 | 12.26449 | 452 ft | 29 kts | 266° |
| 2026-05-06 15:11 | 51.43313 | 12.25614 | 453 ft | 118 kts | 265° |
| 2026-05-06 15:12 | 51.43230 | 12.23882 | 464 ft | 190 kts | 266° |
| 2026-05-06 15:12 | 51.43128 | 12.21568 | 1021 ft | 217 kts | 270° |
| 2026-05-06 15:12 | 51.43511 | 12.19295 | 2080 ft | 213 kts | 303° |
| 2026-05-06 15:12 | 51.44560 | 12.17642 | 2960 ft | 215 kts | 322° |
| 2026-05-06 15:13 | 51.45784 | 12.16180 | 3489 ft | 228 kts | 322° |
| 2026-05-06 15:13 | 51.47136 | 12.14646 | 3869 ft | 246 kts | 324° |
| 2026-05-06 15:13 | 51.48642 | 12.13091 | 4139 ft | 272 kts | 326° |
| 2026-05-06 15:13 | 51.50347 | 12.11461 | 4531 ft | 294 kts | 326° |
| 2026-05-06 15:14 | 51.52017 | 12.09732 | 5762 ft | 282 kts | 325° |
| 2026-05-06 15:14 | 51.53756 | 12.08406 | 6916 ft | 277 kts | 345° |
| 2026-05-06 15:14 | 51.55702 | 12.08195 | 7733 ft | 286 kts | 359° |
| 2026-05-06 15:14 | 51.57718 | 12.08281 | 8439 ft | 292 kts | 360° |
| 2026-05-06 15:15 | 51.59762 | 12.08391 | 8758 ft | 295 kts | 359° |
| 2026-05-06 15:15 | 51.61827 | 12.08489 | 8765 ft | 298 kts | 359° |
| 2026-05-06 15:15 | 51.63891 | 12.08571 | 8786 ft | 295 kts | 359° |
| 2026-05-06 15:15 | 51.65964 | 12.08658 | 9092 ft | 301 kts | 0° |
| 2026-05-06 15:16 | 51.68063 | 12.08936 | 9955 ft | 303 kts | 4° |
| 2026-05-06 15:16 | 51.70208 | 12.09366 | 10460 ft | 321 kts | 5° |
| 2026-05-06 15:16 | 51.72517 | 12.09874 | 10652 ft | 347 kts | 6° |
| 2026-05-06 15:16 | 51.74993 | 12.10426 | 10877 ft | 370 kts | 6° |
| 2026-05-06 15:17 | 51.77581 | 12.10994 | 11420 ft | 380 kts | 6° |
| 2026-05-06 15:17 | 51.80227 | 12.11563 | 12197 ft | 384 kts | 5° |
| 2026-05-06 15:17 | 51.82889 | 12.12123 | 12986 ft | 388 kts | 5° |
| 2026-05-06 15:17 | 51.85577 | 12.12678 | 13716 ft | 392 kts | 5° |
| 2026-05-06 15:18 | 51.88301 | 12.13233 | 14359 ft | 397 kts | 5° |
| 2026-05-06 15:18 | 51.91061 | 12.13792 | 15010 ft | 401 kts | 5° |
| 2026-05-06 15:18 | 51.93808 | 12.14347 | 15655 ft | 405 kts | 5° |
| 2026-05-06 15:18 | 51.96621 | 12.14914 | 16306 ft | 409 kts | 5° |
| 2026-05-06 15:19 | 51.99465 | 12.15489 | 16942 ft | 413 kts | 5° |
| 2026-05-06 15:19 | 52.02335 | 12.16069 | 17570 ft | 418 kts | 5° |
| 2026-05-06 15:19 | 52.05237 | 12.16657 | 18180 ft | 422 kts | 5° |
| 2026-05-06 15:19 | 52.08164 | 12.17251 | 18741 ft | 425 kts | 5° |
| 2026-05-06 15:20 | 52.11108 | 12.17850 | 19301 ft | 428 kts | 5° |
| 2026-05-06 15:20 | 52.14078 | 12.18455 | 19861 ft | 432 kts | 5° |
| 2026-05-06 15:20 | 52.17069 | 12.19065 | 20397 ft | 435 kts | 5° |
| 2026-05-06 15:20 | 52.20089 | 12.19682 | 20920 ft | 439 kts | 5° |
| 2026-05-06 15:21 | 52.23131 | 12.20304 | 21423 ft | 442 kts | 4° |
| 2026-05-06 15:21 | 52.26206 | 12.20933 | 21945 ft | 445 kts | 4° |
| 2026-05-06 15:21 | 52.29290 | 12.21565 | 22444 ft | 449 kts | 4° |
| 2026-05-06 15:21 | 52.32365 | 12.22196 | 22913 ft | 452 kts | 4° |
| 2026-05-06 15:22 | 52.35492 | 12.22839 | 23388 ft | 455 kts | 4° |
| 2026-05-06 15:22 | 52.38649 | 12.23489 | 23774 ft | 459 kts | 4° |
| 2026-05-06 15:22 | 52.41826 | 12.24144 | 24158 ft | 462 kts | 4° |
| 2026-05-06 15:22 | 52.45027 | 12.24805 | 24543 ft | 464 kts | 4° |
| 2026-05-06 15:23 | 52.48246 | 12.25471 | 24916 ft | 467 kts | 4° |
| 2026-05-06 15:23 | 52.51483 | 12.26141 | 25275 ft | 470 kts | 4° |
| 2026-05-06 15:23 | 52.54737 | 12.26816 | 25642 ft | 473 kts | 4° |
| 2026-05-06 15:23 | 52.58009 | 12.27496 | 26011 ft | 475 kts | 4° |
| 2026-05-06 15:24 | 52.61298 | 12.28181 | 26365 ft | 478 kts | 4° |
| 2026-05-06 15:24 | 52.64605 | 12.28870 | 26720 ft | 480 kts | 5° |
| 2026-05-06 15:24 | 52.67930 | 12.29564 | 27066 ft | 482 kts | 5° |
| 2026-05-06 15:24 | 52.71263 | 12.30261 | 27404 ft | 484 kts | 5° |
| 2026-05-06 15:25 | 52.74617 | 12.30963 | 27744 ft | 486 kts | 5° |
| 2026-05-06 15:25 | 52.77976 | 12.31668 | 28061 ft | 488 kts | 5° |
| 2026-05-06 15:25 | 52.81355 | 12.32378 | 28387 ft | 490 kts | 5° |
| 2026-05-06 15:25 | 52.84731 | 12.33088 | 28706 ft | 492 kts | 5° |
| 2026-05-06 15:26 | 52.88135 | 12.33805 | 29172 ft | 490 kts | 5° |
| 2026-05-06 15:26 | 52.91503 | 12.34517 | 29756 ft | 486 kts | 5° |
| 2026-05-06 15:26 | 52.94847 | 12.35225 | 30228 ft | 483 kts | 5° |
| 2026-05-06 15:26 | 52.98136 | 12.35921 | 30564 ft | 483 kts | 5° |
| 2026-05-06 15:27 | 53.01511 | 12.36636 | 30866 ft | 483 kts | 5° |
| 2026-05-06 15:27 | 53.04843 | 12.37343 | 31197 ft | 483 kts | 5° |
| 2026-05-06 15:27 | 53.08177 | 12.38052 | 31571 ft | 482 kts | 5° |
| 2026-05-06 15:27 | 53.11463 | 12.38752 | 31918 ft | 481 kts | 5° |
| 2026-05-06 15:28 | 53.14784 | 12.39461 | 32219 ft | 482 kts | 5° |
| 2026-05-06 15:28 | 53.18110 | 12.40172 | 32519 ft | 482 kts | 5° |
| 2026-05-06 15:28 | 53.21437 | 12.40884 | 32834 ft | 482 kts | 5° |
| 2026-05-06 15:28 | 53.24759 | 12.41596 | 33138 ft | 482 kts | 5° |
| 2026-05-06 15:29 | 53.28088 | 12.42311 | 33438 ft | 482 kts | 5° |
| 2026-05-06 15:29 | 53.31417 | 12.43027 | 33743 ft | 482 kts | 5° |
| 2026-05-06 15:29 | 53.34752 | 12.43745 | 34036 ft | 482 kts | 5° |
| 2026-05-06 15:29 | 53.38077 | 12.44463 | 34307 ft | 482 kts | 5° |
| 2026-05-06 15:30 | 53.41406 | 12.45182 | 34560 ft | 481 kts | 5° |
| 2026-05-06 15:30 | 53.44727 | 12.45901 | 34785 ft | 482 kts | 5° |
| 2026-05-06 15:30 | 53.48052 | 12.46620 | 34850 ft | 483 kts | 5° |
| 2026-05-06 15:31 | 53.54683 | 12.48060 | 34868 ft | 482 kts | 5° |
| 2026-05-06 15:31 | 53.61314 | 12.49506 | 34879 ft | 480 kts | 5° |
| 2026-05-06 15:32 | 53.71220 | 12.51673 | 34881 ft | 477 kts | 5° |
| 2026-05-06 15:32 | 53.77797 | 12.53117 | 34880 ft | 476 kts | 5° |
| 2026-05-06 15:33 | 53.84355 | 12.54562 | 34881 ft | 475 kts | 5° |
| 2026-05-06 15:33 | 53.90919 | 12.56012 | 34892 ft | 475 kts | 6° |
| 2026-05-06 15:34 | 53.97484 | 12.57467 | 34879 ft | 476 kts | 6° |
| 2026-05-06 15:34 | 54.04051 | 12.58928 | 34886 ft | 476 kts | 6° |
| 2026-05-06 15:35 | 54.10622 | 12.60395 | 34887 ft | 476 kts | 6° |
| 2026-05-06 15:35 | 54.17194 | 12.61866 | 34889 ft | 477 kts | 6° |
| 2026-05-06 15:36 | 54.23737 | 12.63335 | 34892 ft | 477 kts | 6° |
| 2026-05-06 15:36 | 54.30324 | 12.64819 | 34897 ft | 477 kts | 6° |
| 2026-05-06 15:37 | 54.36909 | 12.66307 | 34897 ft | 477 kts | 6° |
| 2026-05-06 15:37 | 54.43494 | 12.67801 | 34911 ft | 477 kts | 6° |
| 2026-05-06 15:38 | 54.50076 | 12.69298 | 34915 ft | 477 kts | 6° |
| 2026-05-06 15:38 | 54.56658 | 12.70801 | 34921 ft | 476 kts | 6° |
| 2026-05-06 15:39 | 54.63187 | 12.72296 | 34913 ft | 476 kts | 6° |
| 2026-05-06 15:39 | 54.69766 | 12.73807 | 34922 ft | 475 kts | 6° |
| 2026-05-06 15:40 | 54.76323 | 12.75319 | 34917 ft | 475 kts | 6° |
| 2026-05-06 15:40 | 54.81777 | 12.76329 | 34900 ft | 473 kts | 355° |
| 2026-05-06 15:41 | 54.84967 | 12.75213 | 34943 ft | 466 kts | 336° |
| 2026-05-06 15:41 | 54.87804 | 12.72593 | 34936 ft | 460 kts | 321° |
| 2026-05-06 15:41 | 54.90181 | 12.68932 | 34924 ft | 455 kts | 307° |
| 2026-05-06 15:41 | 54.91946 | 12.64432 | 34954 ft | 448 kts | 294° |
| 2026-05-06 15:42 | 54.94576 | 12.54616 | 34941 ft | 448 kts | 290° |
| 2026-05-06 15:42 | 54.97182 | 12.44730 | 34940 ft | 451 kts | 293° |
| 2026-05-06 15:43 | 54.99997 | 12.35018 | 34943 ft | 452 kts | 293° |
| 2026-05-06 15:43 | 55.02826 | 12.25220 | 34943 ft | 453 kts | 292° |
| 2026-05-06 15:44 | 55.05610 | 12.15356 | 34942 ft | 452 kts | 292° |
| 2026-05-06 15:44 | 55.08357 | 12.05487 | 34944 ft | 452 kts | 292° |
| 2026-05-06 15:45 | 55.11090 | 11.95609 | 34680 ft | 451 kts | 292° |
| 2026-05-06 15:45 | 55.12445 | 11.90698 | 34438 ft | 447 kts | 292° |
| 2026-05-06 15:45 | 55.13778 | 11.85858 | 34225 ft | 448 kts | 291° |
| 2026-05-06 15:46 | 55.15128 | 11.80944 | 33990 ft | 449 kts | 291° |
| 2026-05-06 15:46 | 55.16485 | 11.75997 | 33723 ft | 450 kts | 291° |
| 2026-05-06 15:46 | 55.17838 | 11.71048 | 33449 ft | 451 kts | 291° |
| 2026-05-06 15:46 | 55.19190 | 11.66098 | 33171 ft | 452 kts | 291° |
| 2026-05-06 15:47 | 55.20545 | 11.61125 | 32896 ft | 452 kts | 291° |
| 2026-05-06 15:47 | 55.21897 | 11.56156 | 32634 ft | 452 kts | 291° |
| 2026-05-06 15:47 | 55.23244 | 11.51192 | 32374 ft | 452 kts | 291° |
| 2026-05-06 15:47 | 55.24592 | 11.46218 | 32106 ft | 451 kts | 291° |
| 2026-05-06 15:48 | 55.25938 | 11.41237 | 31844 ft | 451 kts | 291° |
| 2026-05-06 15:48 | 55.27279 | 11.36264 | 31590 ft | 451 kts | 291° |
| 2026-05-06 15:48 | 55.28617 | 11.31289 | 31333 ft | 451 kts | 291° |
| 2026-05-06 15:48 | 55.29953 | 11.26315 | 31082 ft | 451 kts | 291° |
| 2026-05-06 15:49 | 55.31284 | 11.21345 | 30386 ft | 449 kts | 291° |
| 2026-05-06 15:49 | 55.32609 | 11.16390 | 29663 ft | 447 kts | 291° |
| 2026-05-06 15:49 | 55.33929 | 11.11439 | 28894 ft | 445 kts | 291° |
| 2026-05-06 15:49 | 55.34282 | 11.10116 | 28715 ft | 444 kts | 291° |
| 2026-05-06 15:50 | 55.34559 | 11.09074 | 28572 ft | 443 kts | 291° |
| 2026-05-06 15:50 | 55.35842 | 11.04250 | 27975 ft | 438 kts | 291° |
| 2026-05-06 15:50 | 55.37121 | 10.99436 | 27397 ft | 432 kts | 291° |
| 2026-05-06 15:50 | 55.38380 | 10.94683 | 26824 ft | 427 kts | 291° |
| 2026-05-06 15:51 | 55.39627 | 10.89961 | 26248 ft | 422 kts | 291° |
| 2026-05-06 15:51 | 55.40855 | 10.85305 | 25688 ft | 417 kts | 291° |
| 2026-05-06 15:51 | 55.42068 | 10.80693 | 25132 ft | 413 kts | 291° |
| 2026-05-06 15:51 | 55.43265 | 10.76129 | 24586 ft | 409 kts | 291° |
| 2026-05-06 15:52 | 55.44452 | 10.71597 | 24046 ft | 405 kts | 291° |
| 2026-05-06 15:52 | 55.45623 | 10.67119 | 23505 ft | 401 kts | 291° |
| 2026-05-06 15:52 | 55.46785 | 10.62663 | 22878 ft | 397 kts | 291° |
| 2026-05-06 15:52 | 55.47931 | 10.58261 | 22335 ft | 393 kts | 291° |
| 2026-05-06 15:53 | 55.49049 | 10.53961 | 21802 ft | 388 kts | 291° |
| 2026-05-06 15:53 | 55.50166 | 10.49659 | 21270 ft | 384 kts | 291° |
| 2026-05-06 15:53 | 55.51268 | 10.45403 | 20733 ft | 380 kts | 291° |
| 2026-05-06 15:53 | 55.52361 | 10.41170 | 20211 ft | 377 kts | 292° |
| 2026-05-06 15:54 | 55.53441 | 10.36981 | 19684 ft | 374 kts | 292° |
| 2026-05-06 15:54 | 55.54513 | 10.32817 | 19173 ft | 371 kts | 292° |
| 2026-05-06 15:54 | 55.55576 | 10.28679 | 18660 ft | 369 kts | 292° |
| 2026-05-06 15:54 | 55.56632 | 10.24565 | 18141 ft | 367 kts | 292° |
| 2026-05-06 15:55 | 55.57681 | 10.20464 | 17565 ft | 364 kts | 292° |
| 2026-05-06 15:55 | 55.58722 | 10.16392 | 17047 ft | 361 kts | 292° |
| 2026-05-06 15:55 | 55.59751 | 10.12359 | 16543 ft | 357 kts | 292° |
| 2026-05-06 15:55 | 55.60767 | 10.08369 | 16036 ft | 354 kts | 292° |
| 2026-05-06 15:56 | 55.61761 | 10.04456 | 15535 ft | 352 kts | 292° |
| 2026-05-06 15:56 | 55.62758 | 10.00526 | 15039 ft | 349 kts | 292° |
| 2026-05-06 15:56 | 55.63751 | 9.96604 | 14550 ft | 347 kts | 292° |
| 2026-05-06 15:56 | 55.64735 | 9.92712 | 14061 ft | 345 kts | 293° |
| 2026-05-06 15:57 | 55.65710 | 9.88849 | 13561 ft | 343 kts | 293° |
| 2026-05-06 15:57 | 55.66680 | 9.85000 | 13034 ft | 341 kts | 293° |
| 2026-05-06 15:57 | 55.67640 | 9.81184 | 12563 ft | 337 kts | 293° |
| 2026-05-06 15:57 | 55.68591 | 9.77400 | 12058 ft | 335 kts | 293° |
| 2026-05-06 15:58 | 55.69535 | 9.73633 | 11584 ft | 333 kts | 293° |
| 2026-05-06 15:58 | 55.70473 | 9.69886 | 11100 ft | 332 kts | 293° |
| 2026-05-06 15:58 | 55.71402 | 9.66169 | 10796 ft | 325 kts | 293° |
| 2026-05-06 15:58 | 55.72302 | 9.62565 | 10660 ft | 316 kts | 293° |
| 2026-05-06 15:59 | 55.73183 | 9.59029 | 10522 ft | 311 kts | 293° |
| 2026-05-06 15:59 | 55.74050 | 9.55541 | 10391 ft | 305 kts | 293° |
| 2026-05-06 15:59 | 55.74847 | 9.52176 | 10253 ft | 295 kts | 288° |
| 2026-05-06 15:59 | 55.75182 | 9.48664 | 10114 ft | 285 kts | 268° |
| 2026-05-06 16:00 | 55.75035 | 9.45168 | 10012 ft | 276 kts | 264° |
| 2026-05-06 16:00 | 55.74852 | 9.41864 | 9864 ft | 268 kts | 265° |
| 2026-05-06 16:00 | 55.74728 | 9.38677 | 9938 ft | 248 kts | 266° |
| 2026-05-06 16:00 | 55.74620 | 9.35725 | 10056 ft | 232 kts | 267° |
| 2026-05-06 16:01 | 55.74531 | 9.32771 | 9862 ft | 252 kts | 267° |
| 2026-05-06 16:01 | 55.74444 | 9.29596 | 9606 ft | 261 kts | 267° |
| 2026-05-06 16:01 | 55.74355 | 9.26369 | 9319 ft | 263 kts | 267° |
| 2026-05-06 16:01 | 55.74262 | 9.23125 | 8895 ft | 265 kts | 267° |
| 2026-05-06 16:02 | 55.74167 | 9.19860 | 8493 ft | 261 kts | 267° |
| 2026-05-06 16:02 | 55.74071 | 9.16666 | 8095 ft | 258 kts | 267° |
| 2026-05-06 16:02 | 55.73975 | 9.13512 | 7703 ft | 254 kts | 267° |
| 2026-05-06 16:02 | 55.73879 | 9.10393 | 7310 ft | 252 kts | 267° |
| 2026-05-06 16:03 | 55.73782 | 9.07299 | 6934 ft | 251 kts | 267° |
| 2026-05-06 16:03 | 55.73684 | 9.04212 | 6553 ft | 250 kts | 267° |
| 2026-05-06 16:03 | 55.73587 | 9.01153 | 6202 ft | 247 kts | 267° |
| 2026-05-06 16:03 | 55.73489 | 8.98121 | 5813 ft | 246 kts | 267° |
| 2026-05-06 16:04 | 55.73391 | 8.95096 | 5536 ft | 245 kts | 268° |
| 2026-05-06 16:04 | 55.73292 | 8.92065 | 5278 ft | 246 kts | 267° |
| 2026-05-06 16:04 | 55.73192 | 8.89023 | 5010 ft | 247 kts | 268° |
| 2026-05-06 16:04 | 55.73091 | 8.85983 | 4747 ft | 247 kts | 268° |
| 2026-05-06 16:05 | 55.72997 | 8.82926 | 4544 ft | 249 kts | 269° |
| 2026-05-06 16:05 | 55.72801 | 8.79845 | 4360 ft | 256 kts | 254° |
| 2026-05-06 16:05 | 55.71844 | 8.77222 | 4089 ft | 256 kts | 220° |
| 2026-05-06 16:05 | 55.70289 | 8.75834 | 3835 ft | 246 kts | 191° |
| 2026-05-06 16:06 | 55.68667 | 8.75834 | 3660 ft | 224 kts | 165° |
| 2026-05-06 16:06 | 55.67318 | 8.76913 | 3508 ft | 204 kts | 141° |
| 2026-05-06 16:06 | 55.66394 | 8.78658 | 3314 ft | 189 kts | 120° |
| 2026-05-06 16:06 | 55.65834 | 8.80672 | 3063 ft | 177 kts | 105° |
| 2026-05-06 16:07 | 55.65775 | 8.82680 | 2820 ft | 157 kts | 64° |
| 2026-05-06 16:07 | 55.66461 | 8.84034 | 2589 ft | 149 kts | 41° |
| 2026-05-06 16:07 | 55.67192 | 8.85342 | 2362 ft | 147 kts | 45° |
| 2026-05-06 16:07 | 55.67889 | 8.86679 | 2308 ft | 150 kts | 46° |
| 2026-05-06 16:08 | 55.68594 | 8.88035 | 2289 ft | 148 kts | 46° |
| 2026-05-06 16:08 | 55.69285 | 8.89366 | 2282 ft | 146 kts | 46° |
| 2026-05-06 16:08 | 55.69964 | 8.90668 | 2287 ft | 145 kts | 45° |
| 2026-05-06 16:08 | 55.70659 | 8.91990 | 2295 ft | 147 kts | 45° |
| 2026-05-06 16:09 | 55.71352 | 8.93299 | 2280 ft | 145 kts | 44° |
| 2026-05-06 16:09 | 55.72061 | 8.94569 | 2279 ft | 146 kts | 44° |
| 2026-05-06 16:09 | 55.72759 | 8.95844 | 2300 ft | 143 kts | 45° |
| 2026-05-06 16:09 | 55.73115 | 8.97458 | 2265 ft | 146 kts | 88° |
| 2026-05-06 16:10 | 55.73106 | 8.99299 | 2218 ft | 152 kts | 82° |
| 2026-05-06 16:10 | 55.73211 | 9.01192 | 1929 ft | 156 kts | 81° |
| 2026-05-06 16:10 | 55.73374 | 9.03074 | 1571 ft | 152 kts | 75° |
| 2026-05-06 16:10 | 55.73582 | 9.04872 | 1221 ft | 147 kts | 77° |
| 2026-05-06 16:11 | 55.73658 | 9.05600 | 1063 ft | 146 kts | 78° |
| 2026-05-06 16:11 | 55.73764 | 9.07040 | 820 ft | 146 kts | 82° |
| 2026-05-06 16:11 | 55.73825 | 9.08857 | 709 ft | 150 kts | 85° |
| 2026-05-06 16:11 | 55.73893 | 9.10706 | 571 ft | 149 kts | 84° |
| 2026-05-06 16:12 | 55.73954 | 9.12538 | 331 ft | 148 kts | 86° |
| 2026-05-06 16:12 | 55.74012 | 9.14313 | 227 ft | 134 kts | 87° |
| 2026-05-06 16:12 | 55.74056 | 9.15761 | 236 ft | 100 kts | 87° |
| 2026-05-06 16:12 | 55.74081 | 9.16553 | 245 ft | 44 kts | 86° |
| 2026-05-06 16:13 | 55.74103 | 9.16887 | 247 ft | 12 kts | 44° |
| 2026-05-06 16:13 | 55.74187 | 9.16908 | 246 ft | 15 kts | 355° |
| 2026-05-06 16:13 | 55.74211 | 9.16905 | 246 ft | 1 kts | 355° |
| 2026-05-06 16:13 | 55.74238 | 9.16896 | 246 ft | 9 kts | 335° |
| 2026-05-06 16:14 | 55.74251 | 9.16697 | 244 ft | 25 kts | 267° |
| 2026-05-06 16:14 | 55.74241 | 9.16390 | 242 ft | 24 kts | 266° |
| 2026-05-06 16:14 | 55.74232 | 9.16101 | 241 ft | 23 kts | 268° |
| 2026-05-06 16:14 | 55.74223 | 9.15824 | 239 ft | 22 kts | 266° |
| 2026-05-06 16:15 | 55.74215 | 9.15554 | 237 ft | 22 kts | 266° |
| 2026-05-06 16:15 | 55.74206 | 9.15292 | 238 ft | 21 kts | 267° |
| 2026-05-06 16:15 | 55.74207 | 9.15040 | 234 ft | 20 kts | 294° |
| 2026-05-06 16:15 | 55.74272 | 9.14960 | 235 ft | 11 kts | 300° |
| 2026-05-06 16:16 | 55.74274 | 9.14823 | 232 ft | 11 kts | 266° |
| 2026-05-06 16:16 | 55.74307 | 9.14722 | 232 ft | 11 kts | 350° |
| 2026-05-06 16:16 | 55.74334 | 9.14718 | 232 ft | 1 kts | 356° |
| 2026-05-06 16:16 | 55.74336 | 9.14718 | 232 ft | 0 kts | 356° |